Date,TemperatureHighF,TemperatureAvgF,TemperatureLowF,DewpointHighF,DewpointAvgF,DewpointLowF,HumidityHigh,HumidityAvg,HumidityLow,PressureMaxIn,PressureMinIn,WindSpeedMaxMPH,WindSpeedAvgMPH,GustSpeedMaxMPH,PrecipitationSumIn
2013-5-1,87,78,70,52,49,45,48,36,27,30.06,29.95,9,3,10,0.00
2013-5-2,87,80,73,50,44,42,37,30,22,29.96,29.89,8,4,10,0.00
2013-5-3,82,75,70,61,52,44,66,45,34,29.92,29.84,4,2,7,0.00
2013-5-4,82,73,68,61,58,55,71,61,41,29.96,29.85,8,1,9,0.00
2013-5-5,82,75,68,64,59,54,70,59,39,30.05,29.94,4,1,6,0.00
2013-5-6,85,79,73,61,55,50,66,46,31,30.07,29.98,10,5,14,0.00
2013-5-7,80,76,72,53,52,49,49,43,37,29.97,29.94,8,4,8,0.00
2013-5-9,72,69,66,58,55,54,70,62,56,29.88,29.84,10,7,13,0.01
2013-5-10,72,68,62,57,55,52,81,62,51,29.91,29.84,6,4,7,0.03
2013-5-11,73,69,63,61,57,52,74,66,56,29.89,29.77,9,3,11,0.00
2013-5-12,76,71,67,60,58,56,76,65,51,29.75,29.66,5,2,7,0.00
2013-5-13,70,70,70,54,54,54,56,56,56,29.68,29.68,3,3,4,0.00
2013-5-14,74,66,61,57,54,51,83,68,48,29.84,29.69,7,4,10,0.13
2013-5-15,74,68,62,58,55,53,73,65,56,29.88,29.83,8,2,12,0.00
2013-5-16,73,68,65,62,58,54,81,71,55,29.90,29.84,9,2,14,0.00
2013-5-17,78,71,67,63,60,55,85,68,48,29.91,29.82,5,2,8,0.00
2013-5-18,78,72,68,64,61,60,79,69,55,29.99,29.90,4,1,5,0.00
2013-5-19,83,76,71,67,61,54,74,61,41,29.97,29.90,4,1,4,0.00
2013-5-20,84,77,71,68,63,60,76,63,52,29.92,29.87,3,1,3,0.00
2013-5-21,85,78,73,65,59,54,70,53,35,29.93,29.85,5,1,6,0.00
2013-5-22,80,75,70,66,62,60,74,65,55,29.88,29.82,4,1,9,0.00
2013-5-23,79,75,73,65,59,53,75,58,41,29.65,29.58,12,7,12,0.00
2013-5-24,78,73,69,60,54,50,57,50,44,29.88,29.72,6,3,10,0.00
2013-5-25,76,71,67,61,55,50,68,57,47,29.93,29.89,8,4,9,0.00
2013-5-26,80,74,67,59,55,48,64,52,36,29.95,29.85,7,2,10,0.00
2013-5-27,77,72,67,54,47,43,56,41,33,29.97,29.91,6,2,7,0.00
2013-5-28,73,71,65,62,56,49,74,60,45,29.94,29.78,7,2,8,0.00
2013-5-29,80,73,68,65,57,50,73,57,42,29.76,29.58,7,2,12,0.00
2013-5-30,84,76,71,64,58,52,75,55,36,29.74,29.66,6,2,7,0.00
2013-5-31,80,75,70,61,52,45,69,47,31,29.78,29.66,8,3,8,0.00